Time;durP1;ratioP1;P1;durP2;ratioP2;P2;SDS_P1;SDS_P2;PMS_P1;PMS_P2;Temp;Humidity;BMP_temperature;BMP_pressure;BME280_temperature;BME280_humidity;BME280_pressure;Samples;Min_cycle;Max_cycle;Signal;HPM_P1;HPM_P2
2022/01/08 00:02:14;;;;;;;13.88;3.53;;;1.10;99.90;;;;;;6071012;23;20019;-89
2022/01/08 00:04:45;;;;;;;2.45;2.15;;;1.20;99.90;;;;;;6071725;23;20027;-89
2022/01/08 00:07:22;;;;;;;4.65;2.30;;;2.40;99.90;;;;;;6070052;23;20503;-88
2022/01/08 00:09:51;;;;;;;3.00;2.38;;;1.30;99.90;;;;;;6071692;23;20105;-89
2022/01/08 00:12:28;;;;;;;4.15;2.33;;;1.20;99.90;;;;;;6070785;23;20015;-89
2022/01/08 00:15:11;;;;;;;3.22;2.30;;;1.10;99.90;;;;;;6047425;23;20154;-89
2022/01/08 00:17:51;;;;;;;3.90;2.83;;;1.50;99.90;;;;;;6047686;23;20082;-89
2022/01/08 00:20:59;;;;;;;5.32;2.30;;;0.10;99.90;;;;;;6024515;23;20018;-89
2022/01/08 00:23:35;;;;;;;;;;;;;;;;;;;;;
2022/01/08 00:26:04;;;;;;;3.60;2.30;;;1.20;99.90;;;;;;6094870;23;20019;-89
2022/01/08 00:28:35;;;;;;;14.00;3.25;;;0.00;99.90;;;;;;6071818;23;20041;-89
2022/01/08 00:31:11;;;;;;;3.05;2.67;;;1.30;99.90;;;;;;6070579;23;20022;-89
2022/01/08 00:33:47;;;;;;;6.35;3.30;;;2.30;99.90;;;;;;6025626;23;20026;-89
2022/01/08 00:36:19;;;;;;;4.53;2.47;;;0.90;99.90;;;;;;6046729;23;20022;-90
2022/01/08 00:42:14;;;;;;;;;;;;;;;;;;;;;
2022/01/08 00:45:28;;;;;;;;;;;;;;;;;;;;;
2022/01/08 00:52:01;;;;;;;7.88;2.47;;;2.50;99.90;;;;;;6031852;23;20065;-90
2022/01/08 00:54:27;;;;;;;3.33;2.45;;;1.10;99.90;;;;;;6044495;23;20049;-90
2022/01/08 00:57:13;;;;;;;6.37;3.30;;;2.40;99.90;;;;;;6070863;23;20455;-90
2022/01/08 01:00:13;;;;;;;;;;;;;;;;;;;;;
2022/01/08 01:03:30;;;;;;;3.08;1.75;;;2.20;99.90;;;;;;6092713;23;20022;-89
2022/01/08 01:06:01;;;;;;;3.00;2.05;;;1.10;99.90;;;;;;6071058;23;20022;-89
2022/01/08 01:08:27;;;;;;;3.50;2.40;;;1.00;99.90;;;;;;6064661;23;20015;-90
2022/01/08 01:11:08;;;;;;;;;;;;;;;;;;;;;
2022/01/08 01:13:44;;;;;;;5.47;2.40;;;1.00;99.90;;;;;;6065782;23;20018;-89
2022/01/08 01:16:15;;;;;;;2.42;2.05;;;2.10;99.90;;;;;;6041210;23;20023;-90
2022/01/08 01:19:15;;;;;;;;;;;;;;;;;;;;;
2022/01/08 01:22:01;;;;;;;3.55;2.38;;;2.10;99.90;;;;;;6065946;23;20021;-91
2022/01/08 01:25:01;;;;;;;5.60;2.38;;;1.00;99.90;;;;;;6027205;23;20019;-90
2022/01/08 01:42:50;;;;;;;4.97;3.05;;;1.20;99.90;;;;;;6045428;23;20027;-90
2022/01/08 01:48:27;;;;;;;5.82;2.42;;;0.90;99.90;;;;;;6065007;23;20166;-89
2022/01/08 01:50:53;;;;;;;5.22;3.15;;;1.10;99.90;;;;;;6041802;23;20026;-89
2022/01/08 01:53:29;;;;;;;4.97;3.67;;;2.10;99.90;;;;;;6040555;23;20455;-89
2022/01/08 01:55:58;;;;;;;7.97;3.75;;;1.50;99.90;;;;;;6043024;23;20025;-89
2022/01/08 01:58:32;;;;;;;4.03;3.38;;;2.10;99.90;;;;;;6017275;23;20033;-89
2022/01/08 02:01:07;;;;;;;5.88;3.58;;;1.90;99.90;;;;;;6042303;23;20134;-89
2022/01/08 02:03:47;;;;;;;9.15;5.68;;;1.10;99.90;;;;;;6041197;23;20023;-89
2022/01/08 02:06:25;;;;;;;5.95;3.83;;;0.10;99.90;;;;;;6064921;23;20019;-90
2022/01/08 02:08:52;;;;;;;11.43;5.53;;;2.10;99.90;;;;;;6040962;23;20062;-89
2022/01/08 02:11:20;;;;;;;;;;;1.10;99.90;;;;;;6041183;23;20030;-90
2022/01/08 02:13:49;;;;;;;5.38;4.05;;;1.10;99.90;;;;;;6042043;23;19918;-89
2022/01/08 02:16:33;;;;;;;;;;;;;;;;;;;;;
2022/01/08 02:19:12;;;;;;;7.78;5.35;;;1.00;99.90;;;;;;6024376;23;20057;-89
2022/01/08 02:22:02;;;;;;;13.45;5.32;;;0.90;99.90;;;;;;6040854;23;20022;-89
2022/01/08 02:24:35;;;;;;;6.22;4.63;;;2.10;99.90;;;;;;6023363;23;20102;-89
2022/01/08 02:27:13;;;;;;;6.22;4.85;;;1.90;99.90;;;;;;6019270;23;20018;-89
2022/01/08 02:29:43;;;;;;;7.50;5.25;;;1.00;99.90;;;;;;6040770;23;20015;-89
2022/01/08 02:32:29;;;;;;;;;;;;;;;;;;;;;
2022/01/08 02:35:03;;;;;;;7.72;4.78;;;2.20;99.90;;;;;;6065634;23;20015;-90
2022/01/08 02:37:48;;;;;;;5.40;4.85;;;1.10;99.90;;;;;;6041612;23;20405;-89
2022/01/08 02:40:28;;;;;;;;;;;;;;;;;;;;;
2022/01/08 02:43:04;;;;;;;7.78;5.03;;;2.00;99.90;;;;;;6065363;23;20054;-88
2022/01/08 02:45:37;;;;;;;7.85;5.15;;;1.90;99.90;;;;;;6065232;23;20030;-89
2022/01/08 02:48:08;;;;;;;8.85;5.60;;;0.90;99.90;;;;;;6043639;23;20101;-88
2022/01/08 02:50:34;;;;;;;11.68;5.22;;;0.90;99.90;;;;;;6042449;23;20021;-89
2022/01/08 02:53:05;;;;;;;9.73;5.57;;;0.90;99.90;;;;;;6043271;23;20015;-89
2022/01/08 02:55:33;;;;;;;5.75;4.90;;;1.90;99.90;;;;;;6043159;23;20019;-89
2022/01/08 02:58:06;;;;;;;5.82;3.67;;;2.00;99.90;;;;;;6020014;23;20333;-88
2022/01/08 03:00:35;;;;;;;6.68;3.72;;;2.10;99.90;;;;;;6019030;23;20031;-89
2022/01/08 03:03:06;;;;;;;8.20;4.88;;;0.60;99.90;;;;;;6034673;23;20098;-89
2022/01/08 03:05:35;;;;;;;8.38;4.05;;;1.20;99.90;;;;;;6043297;23;20531;-89
2022/01/08 03:08:26;;;;;;;8.82;5.60;;;0.90;99.90;;;;;;6047409;23;20093;-89
2022/01/08 03:10:55;;;;;;;9.15;3.38;;;0.60;99.90;;;;;;6048115;23;20033;-89
2022/01/08 03:13:26;;;;;;;6.57;4.05;;;2.00;99.90;;;;;;6047939;23;20022;-88
2022/01/08 03:15:58;;;;;;;9.18;4.32;;;0.70;99.90;;;;;;6048361;23;20077;-89
2022/01/08 03:18:26;;;;;;;4.50;3.50;;;1.50;99.90;;;;;;6025502;23;20030;-90
2022/01/08 03:21:35;;;;;;;12.90;4.60;;;1.70;99.90;;;;;;6023543;23;20023;-88
2022/01/08 03:23:59;;;;;;;16.20;5.03;;;1.70;99.90;;;;;;6067688;23;20030;-89
2022/01/08 03:26:26;;;;;;;;;;;0.60;99.90;;;;;;6048376;23;20455;-90
2022/01/08 03:29:03;;;;;;;6.25;4.00;;;0.40;99.90;;;;;;6047725;23;19925;-88
2022/01/08 03:31:29;;;;;;;4.95;3.22;;;1.20;99.90;;;;;;6047000;23;20053;-89
2022/01/08 03:33:59;;;;;;;9.43;3.57;;;1.30;99.90;;;;;;6048039;23;20018;-88
2022/01/08 03:36:33;;;;;;;6.00;4.28;;;-0.40;99.90;;;;;;6071849;23;20343;-88
2022/01/08 03:38:59;;;;;;;5.03;3.60;;;1.70;99.90;;;;;;6025003;23;20097;-88
2022/01/08 03:41:28;;;;;;;6.50;3.80;;;1.60;99.90;;;;;;6071297;23;20019;-88
2022/01/08 03:43:57;;;;;;;7.10;4.40;;;0.20;99.90;;;;;;6024481;23;20029;-88
2022/01/08 03:46:27;;;;;;;4.32;3.72;;;1.20;99.90;;;;;;6047908;23;20019;-88
2022/01/08 03:51:43;;;;;;;4.95;2.75;;;1.60;99.90;;;;;;6071372;23;20054;-88
2022/01/08 03:54:19;;;;;;;;;;;;;;;;;;;;;
2022/01/08 03:57:08;;;;;;;5.47;3.80;;;1.20;99.90;;;;;;6070799;23;20014;-88
2022/01/08 04:00:01;;;;;;;4.63;3.38;;;-0.40;99.90;;;;;;6046616;23;20077;-88
2022/01/08 04:02:30;;;;;;;7.60;2.72;;;0.20;99.90;;;;;;6046944;23;20022;-88
2022/01/08 04:05:05;;;;;;;4.30;3.08;;;1.50;99.90;;;;;;6024028;23;20029;-88
2022/01/08 04:07:36;;;;;;;9.90;3.13;;;1.30;99.90;;;;;;6043677;23;20029;-89
2022/01/08 04:10:03;;;;;;;5.13;2.95;;;0.40;99.90;;;;;;6071677;23;20097;-88
2022/01/08 04:12:52;;;;;;;3.55;2.40;;;0.30;99.90;;;;;;6047623;23;20022;-88
2022/01/08 04:17:53;;;;;;;4.22;2.40;;;1.60;99.90;;;;;;6070917;23;20101;-87
2022/01/08 04:20:27;;;;;;;3.70;2.72;;;1.30;99.90;;;;;;6047021;23;20022;-88
2022/01/08 04:22:58;;;;;;;2.88;1.95;;;1.70;99.90;;;;;;6046715;23;20514;-88
2022/01/08 04:25:26;;;;;;;4.78;2.35;;;0.70;99.90;;;;;;6047097;23;20039;-88
2022/01/08 04:27:57;;;;;;;2.88;2.08;;;0.50;99.90;;;;;;6070428;23;20081;-88
2022/01/08 04:30:26;;;;;;;3.08;2.63;;;1.50;99.90;;;;;;6095314;23;20019;-87
2022/01/08 04:32:51;;;;;;;3.10;2.53;;;-0.70;99.90;;;;;;6022981;23;20042;-88
2022/01/08 04:35:17;;;;;;;3.93;1.70;;;1.40;99.90;;;;;;6023575;23;20460;-88
2022/01/08 04:37:43;;;;;;;2.17;1.97;;;1.70;99.90;;;;;;6046803;23;20097;-88
2022/01/08 04:40:12;;;;;;;2.47;1.80;;;1.30;99.90;;;;;;6047246;23;20014;-88
2022/01/08 04:42:48;;;;;;;3.65;2.60;;;0.40;99.90;;;;;;6046670;23;20348;-88
2022/01/08 04:45:17;;;;;;;4.18;2.28;;;0.60;99.90;;;;;;6047392;23;20023;-87
2022/01/08 04:47:50;;;;;;;10.15;2.85;;;0.70;99.90;;;;;;6023128;23;20058;-88
2022/01/08 04:50:18;;;;;;;2.75;2.40;;;1.70;99.90;;;;;;6041264;23;20046;-88
2022/01/08 04:52:49;;;;;;;5.72;2.58;;;1.60;99.90;;;;;;6022737;23;20073;-88
2022/01/08 04:55:18;;;;;;;5.22;2.72;;;0.40;99.90;;;;;;6046800;23;20078;-88
2022/01/08 04:57:49;;;;;;;11.05;3.92;;;1.50;99.90;;;;;;6070057;23;20018;-87
2022/01/08 05:00:24;;;;;;;6.15;2.55;;;1.30;99.90;;;;;;6071134;23;20485;-87
2022/01/08 05:02:59;;;;;;;5.32;3.67;;;-0.20;99.90;;;;;;6046257;23;20535;-88
2022/01/08 05:05:29;;;;;;;5.82;4.57;;;0.60;99.90;;;;;;6047212;23;20093;-88
2022/01/08 05:07:55;;;;;;;8.30;4.57;;;1.20;99.90;;;;;;6043041;23;20022;-88
2022/01/08 05:10:21;;;;;;;7.78;3.03;;;0.40;99.90;;;;;;6046822;23;20053;-87
2022/01/08 05:12:46;;;;;;;6.83;4.13;;;0.40;99.90;;;;;;6070397;23;20029;-87
2022/01/08 05:15:21;;;;;;;9.13;4.83;;;1.40;99.90;;;;;;6070995;23;20018;-87
2022/01/08 05:17:54;;;;;;;14.80;4.55;;;1.90;99.90;;;;;;6039624;23;20024;-88
2022/01/08 05:20:25;;;;;;;15.98;5.18;;;0.40;99.90;;;;;;6071071;23;20020;-87
2022/01/08 05:22:53;;;;;;;11.80;4.18;;;0.40;99.90;;;;;;6070267;23;20022;-87
2022/01/08 05:25:25;;;;;;;4.80;3.70;;;0.50;99.90;;;;;;6094510;23;20474;-87
2022/01/08 05:27:54;;;;;;;11.32;5.07;;;1.80;99.90;;;;;;6045991;23;20023;-87
2022/01/08 05:30:21;;;;;;;13.23;4.50;;;0.40;99.90;;;;;;6046658;23;20447;-88
2022/01/08 05:32:48;;;;;;;9.60;4.22;;;0.50;99.90;;;;;;6046175;23;20015;-88
2022/01/08 05:35:22;;;;;;;5.40;3.70;;;1.10;99.90;;;;;;6046777;23;20514;-87
2022/01/08 05:37:48;;;;;;;8.35;4.35;;;1.70;99.90;;;;;;6046184;23;20018;-88
2022/01/08 05:40:19;;;;;;;11.30;4.20;;;0.60;99.90;;;;;;6070805;23;20018;-87
2022/01/08 05:42:51;;;;;;;8.70;4.35;;;0.60;99.90;;;;;;6094519;23;20022;-89
2022/01/08 05:45:17;;;;;;;6.20;4.38;;;0.50;99.90;;;;;;6046815;23;20023;-87
2022/01/08 05:47:43;;;;;;;8.00;4.43;;;0.40;99.90;;;;;;6070575;23;20029;-87
2022/01/08 05:50:12;;;;;;;7.32;4.55;;;0.10;99.90;;;;;;6069974;23;20018;-87
2022/01/08 05:52:48;;;;;;;6.18;3.47;;;0.40;99.90;;;;;;6023523;23;20018;-87
2022/01/08 05:55:18;;;;;;;5.47;3.92;;;0.40;99.90;;;;;;6070927;23;20066;-87
2022/01/08 05:57:52;;;;;;;6.60;3.90;;;0.30;99.90;;;;;;6046639;23;20157;-87
2022/01/08 06:00:24;;;;;;;10.15;4.15;;;-0.70;99.90;;;;;;6070701;23;20142;-87
2022/01/08 06:02:57;;;;;;;13.15;4.22;;;0.40;99.90;;;;;;6070128;23;20351;-89
2022/01/08 06:05:26;;;;;;;18.52;4.75;;;1.60;99.90;;;;;;6070705;23;20062;-87
2022/01/08 06:08:00;;;;;;;5.43;3.60;;;1.80;99.90;;;;;;6093624;23;20054;-88
2022/01/08 06:10:31;;;;;;;9.68;4.25;;;0.40;99.90;;;;;;6046603;23;20105;-88
2022/01/08 06:12:56;;;;;;;8.02;3.97;;;0.40;99.90;;;;;;6069011;23;20089;-88
2022/01/08 06:15:27;;;;;;;6.17;2.97;;;-0.50;99.90;;;;;;6069944;23;20068;-87
2022/01/08 06:17:56;;;;;;;17.08;4.28;;;0.30;99.90;;;;;;6046303;23;20025;-88
2022/01/08 06:20:24;;;;;;;12.37;4.40;;;1.80;99.90;;;;;;6094386;23;20403;-87
2022/01/08 06:22:55;;;;;;;4.85;3.20;;;0.40;99.90;;;;;;6070503;23;20503;-87
2022/01/08 06:25:21;;;;;;;9.88;3.00;;;1.40;99.90;;;;;;6023478;23;20018;-86
2022/01/08 06:27:49;;;;;;;9.13;3.50;;;1.60;99.90;;;;;;6070445;23;20163;-87
2022/01/08 06:30:15;;;;;;;7.28;3.40;;;0.90;99.90;;;;;;6069441;23;20015;-87
2022/01/08 06:32:41;;;;;;;4.27;3.37;;;0.80;99.90;;;;;;6094250;23;20014;-87
2022/01/08 06:35:10;;;;;;;5.18;2.83;;;0.40;99.90;;;;;;6068826;23;20023;-87
2022/01/08 06:37:46;;;;;;;5.20;3.05;;;0.30;99.90;;;;;;6070361;23;20022;-87
2022/01/08 06:40:14;;;;;;;8.05;3.85;;;0.70;99.90;;;;;;6069691;23;20030;-87
2022/01/08 06:42:43;;;;;;;4.43;2.60;;;0.30;99.90;;;;;;6070433;23;20023;-87
2022/01/08 06:45:09;;;;;;;11.40;3.78;;;0.00;99.90;;;;;;6069497;23;20022;-87
2022/01/08 06:47:42;;;;;;;39.50;3.70;;;0.30;99.90;;;;;;6070450;23;20090;-87
2022/01/08 06:50:08;;;;;;;7.80;3.53;;;1.50;99.90;;;;;;6069528;23;20018;-87
2022/01/08 06:52:38;;;;;;;5.75;3.63;;;-0.10;99.90;;;;;;6023406;23;20014;-87
2022/01/08 06:55:08;;;;;;;4.53;2.72;;;1.70;99.90;;;;;;6045695;23;20044;-87
2022/01/08 06:57:34;;;;;;;4.70;3.50;;;0.20;99.90;;;;;;6023289;23;20057;-87
2022/01/08 07:00:02;;;;;;;3.63;2.92;;;1.60;99.90;;;;;;6045810;23;20521;-87
2022/01/08 07:02:28;;;;;;;3.33;3.00;;;0.60;99.90;;;;;;6046269;23;20482;-87
2022/01/08 07:05:02;;;;;;;5.73;3.17;;;0.10;99.90;;;;;;6070082;23;20022;-87
2022/01/08 07:07:32;;;;;;;6.60;3.50;;;0.00;99.90;;;;;;5994365;23;20023;-87
2022/01/08 07:09:58;;;;;;;7.97;3.45;;;0.20;99.90;;;;;;6017250;23;20019;-89
2022/01/08 07:12:24;;;;;;;9.73;3.17;;;0.40;99.90;;;;;;6017159;23;20029;-87
2022/01/08 07:14:57;;;;;;;5.05;3.17;;;1.20;99.90;;;;;;6018080;23;20031;-87
2022/01/08 07:17:23;;;;;;;6.70;3.53;;;1.50;99.90;;;;;;6017336;23;20042;-87
2022/01/08 07:19:49;;;;;;;4.93;3.23;;;-0.60;99.90;;;;;;6017639;23;20448;-87
2022/01/08 07:22:15;;;;;;;6.05;3.15;;;0.10;99.90;;;;;;6017034;23;20015;-87
2022/01/08 07:24:41;;;;;;;8.83;3.07;;;0.10;99.90;;;;;;6017540;23;20019;-87
2022/01/08 07:27:18;;;;;;;9.90;2.65;;;1.30;99.90;;;;;;5997161;23;20051;-87
2022/01/08 07:29:48;;;;;;;6.93;2.60;;;1.20;99.90;;;;;;6017728;23;20054;-87
2022/01/08 07:32:16;;;;;;;4.28;2.83;;;0.10;99.90;;;;;;6016914;23;20046;-86
2022/01/08 07:34:42;;;;;;;12.50;4.40;;;1.50;99.90;;;;;;6043193;23;20022;-87
2022/01/08 07:37:13;;;;;;;10.82;4.05;;;0.10;99.90;;;;;;5996751;23;20029;-87
2022/01/08 07:39:41;;;;;;;4.03;2.40;;;0.10;99.90;;;;;;6019551;23;20019;-87
2022/01/08 07:42:07;;;;;;;3.92;3.20;;;1.50;99.90;;;;;;5995302;23;20030;-87
2022/01/08 07:44:33;;;;;;;9.20;2.80;;;0.60;99.90;;;;;;6019461;23;20019;-87
2022/01/08 07:47:00;;;;;;;16.15;4.55;;;0.10;99.90;;;;;;6020448;23;20029;-87
2022/01/08 07:49:26;;;;;;;6.82;2.75;;;0.10;99.90;;;;;;6042028;23;20483;-87
2022/01/08 07:51:52;;;;;;;3.75;3.22;;;1.30;99.90;;;;;;5995547;23;20023;-87
2022/01/08 07:54:18;;;;;;;5.35;3.63;;;0.20;99.90;;;;;;5995035;23;20463;-87
2022/01/08 07:56:43;;;;;;;6.50;3.13;;;-0.50;99.90;;;;;;6042882;23;20022;-88
2022/01/08 07:59:09;;;;;;;5.55;3.00;;;0.30;99.90;;;;;;6018711;23;20015;-88
2022/01/08 08:01:43;;;;;;;5.55;4.68;;;1.50;99.90;;;;;;6019022;23;20018;-89
2022/01/08 08:04:18;;;;;;;9.60;3.67;;;0.30;99.90;;;;;;6019254;23;20022;-88
2022/01/08 08:06:49;;;;;;;5.25;3.33;;;0.20;99.90;;;;;;6019726;23;20019;-86
2022/01/08 08:09:35;;;;;;;7.45;3.60;;;0.20;99.90;;;;;;6018948;23;20511;-87
2022/01/08 08:12:25;;;;;;;4.18;2.60;;;1.50;99.90;;;;;;6019408;23;20456;-88
2022/01/08 08:15:04;;;;;;;6.97;2.88;;;0.30;99.90;;;;;;6019576;23;20094;-87
2022/01/08 08:17:33;;;;;;;9.25;2.85;;;0.70;99.90;;;;;;5995752;23;20050;-87
2022/01/08 08:20:01;;;;;;;7.65;3.53;;;0.50;99.90;;;;;;6019512;23;20088;-86
2022/01/08 08:22:34;;;;;;;7.25;4.30;;;0.80;99.90;;;;;;6019053;23;20530;-86
2022/01/08 08:25:00;;;;;;;11.75;3.22;;;0.50;99.90;;;;;;6019180;23;20023;-86
2022/01/08 08:27:26;;;;;;;9.93;4.03;;;1.80;99.90;;;;;;6018563;23;20089;-85
2022/01/08 08:29:57;;;;;;;5.85;3.65;;;0.70;99.90;;;;;;6019182;23;20019;-86
2022/01/08 08:32:30;;;;;;;9.95;3.13;;;1.20;99.90;;;;;;6042210;23;20377;-88
2022/01/08 08:35:01;;;;;;;3.85;3.22;;;2.80;99.90;;;;;;6018925;23;20023;-88
2022/01/08 08:37:32;;;;;;;4.95;2.80;;;1.70;99.90;;;;;;6042721;23;20015;-86
2022/01/08 08:40:19;;;;;;;3.60;2.63;;;2.20;99.90;;;;;;6043323;23;20026;-86
2022/01/08 08:42:44;;;;;;;6.70;2.90;;;3.60;99.90;;;;;;6022471;23;20027;-85
2022/01/08 08:45:11;;;;;;;12.67;3.17;;;2.50;99.90;;;;;;6018668;23;20014;-85
2022/01/08 08:47:39;;;;;;;;;;;2.60;99.90;;;;;;6019442;23;20086;-84
2022/01/08 08:50:07;;;;;;;5.35;3.35;;;3.50;99.90;;;;;;6042492;23;19933;-84
2022/01/08 08:52:33;;;;;;;5.38;2.72;;;2.70;99.90;;;;;;6018310;23;20344;-85
2022/01/08 08:54:59;;;;;;;3.77;2.90;;;2.60;99.90;;;;;;5995379;23;20057;-85
2022/01/08 08:57:33;;;;;;;3.17;2.30;;;3.80;99.90;;;;;;6017691;23;20015;-87
2022/01/08 09:00:12;;;;;;;8.68;3.10;;;3.10;99.90;;;;;;6018007;23;20015;-87
2022/01/08 09:02:42;;;;;;;6.30;2.65;;;1.20;99.90;;;;;;6042307;23;20026;-88
2022/01/08 09:05:15;;;;;;;10.13;3.08;;;2.10;99.90;;;;;;6018714;23;20057;-87
2022/01/08 09:07:50;;;;;;;3.65;2.95;;;3.20;99.90;;;;;;5994620;23;20026;-87
2022/01/08 09:10:25;;;;;;;7.32;2.45;;;2.60;99.90;;;;;;6012171;23;20090;-88
2022/01/08 09:13:01;;;;;;;6.32;2.63;;;2.00;99.90;;;;;;5990545;23;20026;-87
2022/01/08 09:15:30;;;;;;;4.78;2.53;;;2.10;99.90;;;;;;5988881;23;20023;-88
2022/01/08 09:17:58;;;;;;;5.13;3.08;;;1.50;99.90;;;;;;5990149;23;20023;-88
2022/01/08 09:20:59;;;;;;;3.35;2.70;;;1.50;99.90;;;;;;5991134;23;20090;-89
2022/01/08 09:23:28;;;;;;;5.63;3.00;;;2.90;99.90;;;;;;5967537;23;20452;-88
2022/01/08 09:26:04;;;;;;;;;;;;;;;;;;;;;
2022/01/08 09:28:32;;;;;;;4.95;2.83;;;2.60;99.90;;;;;;6013910;23;20023;-89
2022/01/08 09:30:59;;;;;;;4.25;2.80;;;2.70;99.90;;;;;;5990775;23;20074;-90
2022/01/08 09:33:27;;;;;;;4.00;3.00;;;2.80;99.90;;;;;;5989570;23;20077;-87
2022/01/08 09:35:55;;;;;;;6.63;3.15;;;3.80;99.90;;;;;;5967104;23;20094;-87
2022/01/08 09:38:21;;;;;;;5.30;3.10;;;2.60;99.90;;;;;;6012759;23;20349;-87
2022/01/08 09:40:51;;;;;;;6.00;3.40;;;2.60;99.90;;;;;;5990176;23;20026;-86
2022/01/08 09:43:19;;;;;;;5.85;3.08;;;2.60;99.90;;;;;;6013053;23;20023;-87
2022/01/08 09:45:48;;;;;;;3.63;2.80;;;2.70;99.90;;;;;;5966407;23;20023;-88
2022/01/08 09:48:21;;;;;;;15.85;2.92;;;4.10;99.90;;;;;;5990012;23;20025;-86
2022/01/08 09:50:47;;;;;;;3.05;2.42;;;2.70;99.90;;;;;;6013305;23;20015;-86
2022/01/08 09:53:13;;;;;;;3.87;2.97;;;3.60;99.90;;;;;;5966400;23;20094;-85
2022/01/08 09:55:42;;;;;;;5.80;2.65;;;3.60;99.90;;;;;;5991080;23;20468;-88
2022/01/08 09:58:11;;;;;;;9.88;3.45;;;3.10;99.90;;;;;;5990159;23;20025;-89
2022/01/08 10:00:37;;;;;;;3.97;3.28;;;2.80;99.90;;;;;;5989092;23;20023;-88
2022/01/08 10:03:26;;;;;;;7.95;3.30;;;3.60;99.90;;;;;;5966109;23;20026;-88
2022/01/08 10:05:58;;;;;;;6.55;2.88;;;2.70;99.90;;;;;;5989448;23;20026;-89
2022/01/08 10:08:35;;;;;;;4.88;2.72;;;2.70;99.90;;;;;;6013891;23;20019;-88
2022/01/08 10:11:03;;;;;;;7.65;2.90;;;2.80;99.90;;;;;;6017736;23;20026;-88
2022/01/08 10:13:32;;;;;;;4.90;3.17;;;4.10;99.90;;;;;;6017015;23;20022;-88
2022/01/08 10:18:49;;;;;;;4.70;3.22;;;2.80;99.90;;;;;;6020683;23;20022;-88
2022/01/08 10:21:50;;;;;;;6.63;3.10;;;4.20;99.90;;;;;;6017801;23;20467;-89
2022/01/08 10:24:23;;;;;;;8.38;3.03;;;4.20;99.90;;;;;;6018546;23;20393;-89
2022/01/08 10:26:51;;;;;;;7.40;3.45;;;2.90;99.90;;;;;;6017307;23;20019;-89
2022/01/08 10:29:30;;;;;;;5.57;3.50;;;2.90;99.90;;;;;;6047427;23;20102;-89
2022/01/08 10:31:59;;;;;;;6.10;3.15;;;4.00;99.90;;;;;;5995950;23;20022;-89
2022/01/08 10:34:30;;;;;;;4.10;3.05;;;2.80;99.90;;;;;;6017554;23;20348;-90
2022/01/08 10:37:04;;;;;;;3.92;3.50;;;4.20;99.90;;;;;;6018027;23;20029;-88
2022/01/08 10:39:38;;;;;;;9.15;3.78;;;2.50;99.90;;;;;;6017373;23;20078;-89
2022/01/08 10:42:11;;;;;;;4.53;3.75;;;3.00;99.90;;;;;;6017910;23;20026;-91
2022/01/08 10:44:46;;;;;;;8.63;4.03;;;3.10;99.90;;;;;;6041361;23;20050;-89
2022/01/08 10:47:16;;;;;;;8.18;5.03;;;4.30;99.90;;;;;;6018308;23;20019;-89
2022/01/08 10:50:05;;;;;;;11.15;4.57;;;3.00;99.90;;;;;;6016970;23;20050;-87
2022/01/08 10:52:43;;;;;;;12.32;4.55;;;2.90;99.90;;;;;;6017559;23;20079;-89
2022/01/08 10:55:09;;;;;;;5.85;3.85;;;2.30;99.90;;;;;;6017638;23;20079;-88
2022/01/08 10:57:45;;;;;;;14.67;5.80;;;2.80;99.90;;;;;;6016743;23;20391;-88
2022/01/08 11:00:14;;;;;;;5.00;4.28;;;3.30;99.90;;;;;;6017677;23;20019;-90
2022/01/08 11:02:46;;;;;;;10.60;5.47;;;2.70;99.90;;;;;;6015906;23;20054;-87
2022/01/08 11:05:14;;;;;;;8.63;4.97;;;2.80;99.90;;;;;;5994653;23;20026;-91
2022/01/08 11:07:44;;;;;;;7.63;5.25;;;2.80;99.90;;;;;;6043328;23;20026;-92
2022/01/08 11:10:16;;;;;;;5.85;3.90;;;4.00;99.90;;;;;;6020185;23;20341;-92
2022/01/08 11:12:45;;;;;;;7.47;4.25;;;2.70;99.90;;;;;;6043775;23;20522;-92
2022/01/08 11:15:25;;;;;;;11.85;6.35;;;3.90;99.90;;;;;;6021522;23;20474;-90
2022/01/08 11:17:55;;;;;;;8.55;4.93;;;2.60;99.90;;;;;;6043572;23;20025;-91
2022/01/08 11:20:33;;;;;;;6.57;5.20;;;2.00;99.90;;;;;;6020119;23;20070;-92
2022/01/08 11:23:01;;;;;;;7.68;5.43;;;2.60;99.90;;;;;;5998094;23;20025;-92
2022/01/08 11:25:35;;;;;;;8.23;5.10;;;2.70;99.90;;;;;;6020377;23;20019;-91
2022/01/08 11:28:15;;;;;;;7.07;4.82;;;2.70;99.90;;;;;;6020183;23;20019;-91
2022/01/08 11:30:43;;;;;;;7.30;5.05;;;2.90;99.90;;;;;;6019778;23;20023;-91
2022/01/08 11:33:16;;;;;;;4.93;4.25;;;2.90;99.90;;;;;;5997255;23;20106;-91
2022/01/08 11:35:44;;;;;;;9.77;5.57;;;3.00;99.90;;;;;;6019368;23;20078;-91
2022/01/08 11:38:13;;;;;;;7.88;5.07;;;3.60;99.90;;;;;;6020188;23;20027;-91
2022/01/08 11:40:44;;;;;;;5.72;4.47;;;3.00;99.90;;;;;;6019840;23;20060;-91
2022/01/08 11:43:13;;;;;;;4.90;4.32;;;3.20;99.90;;;;;;6019830;23;20162;-91
2022/01/08 11:45:50;;;;;;;11.93;5.20;;;3.10;99.90;;;;;;6019580;23;20102;-91
2022/01/08 11:51:06;;;;;;;5.68;4.78;;;3.20;99.90;;;;;;6043965;23;20102;-90
2022/01/08 11:53:44;;;;;;;9.43;4.68;;;4.20;99.90;;;;;;6019738;23;20023;-91
2022/01/08 11:56:22;;;;;;;8.27;4.43;;;3.10;99.90;;;;;;6020027;23;20452;-91
2022/01/08 11:59:21;;;;;;;21.85;4.85;;;3.10;99.90;;;;;;6019527;23;20082;-91
2022/01/08 12:02:14;;;;;;;10.93;4.95;;;2.40;99.90;;;;;;6019530;23;20022;-91
2022/01/08 12:04:47;;;;;;;6.32;4.95;;;3.70;99.90;;;;;;6037558;23;20022;-90
2022/01/08 12:07:39;;;;;;;10.10;5.32;;;4.00;99.90;;;;;;6043631;23;20019;-91
2022/01/08 12:10:20;;;;;;;8.63;5.32;;;3.10;99.90;;;;;;6043102;23;20015;-91
2022/01/08 12:12:50;;;;;;;11.60;6.00;;;2.20;99.90;;;;;;6018980;23;20094;-91
2022/01/08 12:15:37;;;;;;;8.15;5.43;;;4.40;99.90;;;;;;6019342;23;20030;-91
2022/01/08 12:18:03;;;;;;;11.18;5.43;;;4.50;99.90;;;;;;6018326;23;20101;-90
2022/01/08 12:20:53;;;;;;;12.70;5.73;;;3.20;99.90;;;;;;6019702;23;20022;-90
2022/01/08 12:23:38;;;;;;;7.65;5.72;;;2.50;99.90;;;;;;6019408;23;20019;-90
2022/01/08 12:26:26;;;;;;;9.20;6.53;;;3.10;99.90;;;;;;6019000;23;20023;-91
2022/01/08 12:29:03;;;;;;;13.70;7.05;;;2.20;99.90;;;;;;6041720;23;20053;-90
2022/01/08 12:31:44;;;;;;;9.52;6.35;;;3.30;99.90;;;;;;6021122;23;20018;-91
2022/01/08 12:34:42;;;;;;;8.23;7.28;;;4.10;99.90;;;;;;6019527;23;20019;-90
2022/01/08 12:37:13;;;;;;;12.57;7.32;;;2.90;99.90;;;;;;5997897;23;20019;-90
2022/01/08 12:39:44;;;;;;;21.45;7.97;;;3.10;99.90;;;;;;6043657;23;20018;-91
2022/01/08 12:42:22;;;;;;;15.02;7.90;;;3.20;99.90;;;;;;6020387;23;20050;-90
2022/01/08 12:45:03;;;;;;;10.13;7.55;;;3.00;99.90;;;;;;6018973;23;20102;-90
2022/01/08 12:48:05;;;;;;;13.88;7.78;;;3.10;99.90;;;;;;6019687;23;20079;-90
2022/01/08 12:50:46;;;;;;;11.93;8.45;;;3.10;99.90;;;;;;6019562;23;20078;-90
2022/01/08 12:53:24;;;;;;;17.20;7.85;;;3.10;99.90;;;;;;6019180;23;20029;-90
2022/01/08 12:56:05;;;;;;;11.93;7.43;;;3.10;99.90;;;;;;6042661;23;20015;-90
2022/01/08 12:58:47;;;;;;;13.15;8.63;;;4.40;99.90;;;;;;6019659;23;20019;-90
2022/01/08 13:01:20;;;;;;;11.30;7.55;;;3.80;99.90;;;;;;6043480;23;20426;-89
2022/01/08 13:03:53;;;;;;;10.10;7.63;;;3.10;99.90;;;;;;6020834;23;20460;-89
2022/01/08 13:06:33;;;;;;;11.05;9.75;;;3.00;99.90;;;;;;6019960;23;20029;-91
2022/01/08 13:09:07;;;;;;;15.02;9.57;;;3.00;99.90;;;;;;6018233;23;20029;-90
2022/01/08 13:11:37;;;;;;;19.90;11.27;;;2.80;99.90;;;;;;5996411;23;20348;-90
2022/01/08 13:14:10;;;;;;;16.67;8.27;;;4.00;99.90;;;;;;5995454;23;20326;-91
2022/01/08 13:16:47;;;;;;;14.55;10.00;;;2.80;99.90;;;;;;6019184;23;20110;-89
2022/01/08 13:19:19;;;;;;;12.18;9.95;;;3.00;99.90;;;;;;6018688;23;20453;-90
2022/01/08 13:22:02;;;;;;;19.50;9.00;;;3.60;99.90;;;;;;6019287;23;20074;-90
2022/01/08 13:24:38;;;;;;;17.08;9.45;;;2.90;99.90;;;;;;5997342;23;20019;-90
2022/01/08 13:27:08;;;;;;;17.35;10.57;;;2.90;99.90;;;;;;5995602;23;20023;-89
2022/01/08 13:29:36;;;;;;;21.17;11.80;;;2.10;99.90;;;;;;6019027;23;20021;-89
2022/01/08 13:32:06;;;;;;;11.55;8.45;;;2.10;99.90;;;;;;6018224;23;20022;-89
2022/01/08 13:34:34;;;;;;;11.30;8.32;;;3.00;99.90;;;;;;6018898;23;20018;-90
2022/01/08 13:37:06;;;;;;;10.18;7.97;;;2.90;99.90;;;;;;6017962;23;20027;-90
2022/01/08 13:39:43;;;;;;;11.73;9.15;;;2.50;99.90;;;;;;6018966;23;20019;-89
2022/01/08 13:42:31;;;;;;;11.70;8.25;;;2.90;99.90;;;;;;6017557;23;20329;-87
2022/01/08 13:45:00;;;;;;;14.13;7.63;;;2.80;99.90;;;;;;6017211;23;20022;-88
2022/01/08 13:47:37;;;;;;;15.00;9.43;;;2.90;99.90;;;;;;6018254;23;20015;-86
2022/01/08 13:50:16;;;;;;;13.25;9.38;;;3.20;99.90;;;;;;6040566;23;20015;-85
2022/01/08 13:53:16;;;;;;;14.77;8.95;;;2.80;99.90;;;;;;6018778;23;20023;-87
2022/01/08 13:56:13;;;;;;;14.63;9.32;;;2.70;99.90;;;;;;6001012;23;20114;-86
2022/01/08 13:59:07;;;;;;;13.43;8.70;;;1.90;99.90;;;;;;6024847;23;20022;-92
2022/01/08 14:01:44;;;;;;;15.10;7.88;;;2.90;99.90;;;;;;6018910;23;20457;-87
2022/01/08 14:04:20;;;;;;;13.90;8.90;;;2.80;99.90;;;;;;6016968;23;20019;-86
2022/01/08 14:09:39;;;;;;;17.15;8.57;;;2.80;99.90;;;;;;5985310;23;20022;-86
2022/01/08 14:12:16;;;;;;;13.25;8.88;;;2.80;99.90;;;;;;5995407;23;20059;-85
2022/01/08 14:14:49;;;;;;;11.88;8.80;;;2.90;99.90;;;;;;6018058;23;20018;-86
2022/01/08 14:17:19;;;;;;;16.80;10.00;;;2.80;99.90;;;;;;6016886;23;20389;-88
2022/01/08 14:20:12;;;;;;;12.70;7.38;;;2.40;99.90;;;;;;6017838;23;20026;-88
2022/01/08 14:22:44;;;;;;;15.40;9.07;;;2.80;99.90;;;;;;5964903;23;20022;-88